ME00 weather

Fort Fairfield Airport
Fort Fairfield, Maine, United States

Public forecast

Using degrees Fahrenheit for public forecast. Weather courtesy of forecast.io.

METAR (pilot weather report)

Closest report is Northern Maine Regional Airport at Presque Isle, 9.3 nm (17.3 km) WSW. Retrieved 2019/07/22 09:56 UTC (56 minutes ago):

KPQI 220956Z AUTO 20003KT 10SM CLR 12/12 A2985 RMK AO2 SLP131 T01220117

TAF (pilot weather forecast)

Closest forecast is Northern Maine Regional Airport at Presque Isle, 9.3 nm (17.3 km) WSW. Retrieved 2019/07/22 06:22 UTC (5 hours ago):

TAF KPQI 220520Z 2206/2306 30005KT P6SM SCT060 FM221300 32007KT P6SM FEW100 FM221700 29007KT P6SM SCT100 FM222200 25003KT P6SM BKN100 FM230100 19003KT P6SM BKN100